Time;durP1;ratioP1;P1;durP2;ratioP2;P2;SDS_P1;SDS_P2;PMS_P1;PMS_P2;Temp;Humidity;BMP_temperature;BMP_pressure;BME280_temperature;BME280_humidity;BME280_pressure;Samples;Min_cycle;Max_cycle;Signal;HPM_P1;HPM_P2
2022/11/03 00:04:08;;;;;;;;;33.00;28.33;;;;;;;;6488491;31;8932;-60
2022/11/03 00:10:10;;;;;;;;;33.00;30.00;;;;;;;;6487876;31;9692;-60
2022/11/03 00:16:12;;;;;;;;;35.33;32.00;;;;;;;;6307007;47;10000806;-60
2022/11/03 00:22:15;;;;;;;;;30.33;26.67;;;;;;;;6487056;39;8847;-60
2022/11/03 00:28:17;;;;;;;;;35.67;30.67;;;;;;;;6489970;31;8987;-59
2022/11/03 00:34:19;;;;;;;;;33.00;31.33;;;;;;;;6488794;31;8860;-60
2022/11/03 00:40:21;;;;;;;;;26.33;22.67;;;;;;;;6489420;39;8926;-62
2022/11/03 00:46:25;;;;;;;;;26.67;24.67;;;;;;;;6490579;31;8983;-60
2022/11/03 00:52:28;;;;;;;;;36.00;36.00;;;;;;;;6489641;31;8851;-60
2022/11/03 00:58:31;;;;;;;;;32.67;32.00;;;;;;;;6489441;39;9111;-60
2022/11/03 01:17:18;;;;;;;;;34.33;30.00;;;;;;;;6488752;46;8902;-61
2022/11/03 01:23:21;;;;;;;;;33.67;31.00;;;;;;;;6489822;39;9514;-61
2022/11/03 01:29:23;;;;;;;;;35.67;31.00;;;;;;;;6490279;39;8867;-60
2022/11/03 01:35:25;;;;;;;;;34.33;32.00;;;;;;;;6489071;31;8907;-60
2022/11/03 01:41:27;;;;;;;;;35.00;33.00;;;;;;;;6489735;39;8962;-59
2022/11/03 01:47:33;;;;;;;;;33.25;29.00;;;;;;;;6490180;31;8983;-60
2022/11/03 01:53:40;;;;;;;;;34.67;32.67;;;;;;;;6489782;31;8863;-60
2022/11/03 01:59:43;;;;;;;;;38.33;36.33;;;;;;;;6489435;39;8908;-61
2022/11/03 02:05:50;;;;;;;;;50.50;39.25;;;;;;;;6488901;39;8867;-59
2022/11/03 02:12:06;;;;;;;;;41.75;36.50;;;;;;;;6489064;31;8880;-60
2022/11/03 02:18:11;;;;;;;;;44.00;37.50;;;;;;;;6489094;39;9529;-59
2022/11/03 02:24:17;;;;;;;;;37.00;31.00;;;;;;;;6489234;31;8871;-60
2022/11/03 02:30:19;;;;;;;;;38.33;35.00;;;;;;;;6489768;31;8909;-60
2022/11/03 02:36:32;;;;;;;;;34.67;34.00;;;;;;;;6488404;31;8856;-60
2022/11/03 02:42:38;;;;;;;;;47.67;36.67;;;;;;;;6488892;46;8922;-59
2022/11/03 02:48:40;;;;;;;;;44.50;37.50;;;;;;;;6488680;31;8849;-60
2022/11/03 02:54:45;;;;;;;;;39.67;35.00;;;;;;;;6489669;31;8834;-60
2022/11/03 03:00:56;;;;;;;;;38.33;35.00;;;;;;;;6489126;39;8916;-59
2022/11/03 03:07:06;;;;;;;;;32.33;31.00;;;;;;;;6488316;46;8867;-60
2022/11/03 03:13:13;;;;;;;;;37.33;33.00;;;;;;;;6488625;46;8939;-60
2022/11/03 03:19:32;;;;;;;;;37.75;33.25;;;;;;;;6488899;39;8945;-60
2022/11/03 03:25:44;;;;;;;;;39.25;36.00;;;;;;;;6488922;31;8892;-59
2022/11/03 03:31:54;;;;;;;;;40.25;36.50;;;;;;;;6488456;46;8835;-59
2022/11/03 03:38:08;;;;;;;;;44.00;35.75;;;;;;;;6488955;31;8837;-60
2022/11/03 03:44:11;;;;;;;;;40.25;35.75;;;;;;;;6488161;39;8910;-59
2022/11/03 03:50:13;;;;;;;;;31.00;30.50;;;;;;;;6488200;31;8911;-60
2022/11/03 03:56:20;;;;;;;;;43.75;40.25;;;;;;;;6488436;46;8918;-59
2022/11/03 04:02:22;;;;;;;;;46.50;41.00;;;;;;;;6487511;39;8884;-59
2022/11/03 04:08:25;;;;;;;;;34.25;32.25;;;;;;;;6489235;39;8877;-61
2022/11/03 04:27:35;;;;;;;;;44.25;39.75;;;;;;;;6488142;39;8836;-58
2022/11/03 04:33:38;;;;;;;;;52.33;43.00;;;;;;;;6488292;39;8958;-59
2022/11/03 04:39:41;;;;;;;;;53.75;43.50;;;;;;;;6487014;39;9629;-58
2022/11/03 04:45:45;;;;;;;;;56.75;43.25;;;;;;;;6488100;31;8890;-60
2022/11/03 04:51:49;;;;;;;;;50.25;43.25;;;;;;;;6488388;31;8856;-60
2022/11/03 04:58:01;;;;;;;;;53.50;44.25;;;;;;;;6486602;46;9094;-60
2022/11/03 05:04:11;;;;;;;;;50.00;43.50;;;;;;;;6473917;31;9003;-59
2022/11/03 05:10:19;;;;;;;;;52.00;44.00;;;;;;;;6488098;39;8916;-59
2022/11/03 05:16:23;;;;;;;;;46.50;38.00;;;;;;;;6491337;31;8866;-58
